createdAt,value
2023-05-21T00:00:22.552Z,18.10
2023-05-21T00:02:49.459Z,18.10
2023-05-21T00:05:18.310Z,18.00
2023-05-21T00:07:45.874Z,18.10
2023-05-21T00:10:13.048Z,18.10
2023-05-21T00:12:40.197Z,18.00
2023-05-21T00:15:07.224Z,17.90
2023-05-21T00:17:36.789Z,17.90
2023-05-21T00:20:07.172Z,17.90
2023-05-21T00:22:33.814Z,18.00
2023-05-21T00:25:00.510Z,18.00
2023-05-21T00:27:27.114Z,18.00
2023-05-21T00:29:53.747Z,18.00
2023-05-21T00:32:20.382Z,18.00
2023-05-21T00:34:47.317Z,18.00
2023-05-21T00:37:15.219Z,18.00
2023-05-21T00:39:41.996Z,18.00
2023-05-21T00:42:08.615Z,18.00
2023-05-21T00:44:35.386Z,17.90
2023-05-21T00:47:02.403Z,17.90
2023-05-21T00:49:29.145Z,17.90
2023-05-21T00:51:55.835Z,17.90
2023-05-21T00:54:23.612Z,17.90
2023-05-21T00:56:50.691Z,17.90
2023-05-21T00:59:17.755Z,17.80
2023-05-21T01:01:45.588Z,17.80
2023-05-21T01:04:13.120Z,17.80
2023-05-21T01:06:39.755Z,17.70
2023-05-21T01:09:07.228Z,17.70
2023-05-21T01:11:44.713Z,17.80
2023-05-21T01:14:12.708Z,17.80
2023-05-21T01:16:41.041Z,17.60
2023-05-21T01:19:10.273Z,17.70
2023-05-21T01:21:37.672Z,17.70
2023-05-21T01:24:05.540Z,17.70
2023-05-21T01:26:33.732Z,17.80
2023-05-21T01:29:00.410Z,17.70
2023-05-21T01:31:31.657Z,17.70
2023-05-21T01:34:00.863Z,17.70
2023-05-21T01:36:32.834Z,17.70
2023-05-21T01:38:59.481Z,17.60
2023-05-21T01:41:28.009Z,17.60
2023-05-21T01:43:56.233Z,17.60
2023-05-21T01:46:25.121Z,17.60
2023-05-21T01:48:52.700Z,17.50
2023-05-21T01:51:19.469Z,17.60
2023-05-21T01:53:46.167Z,17.60
2023-05-21T01:56:12.856Z,17.50
2023-05-21T01:58:39.483Z,17.50
2023-05-21T02:01:06.143Z,17.50
2023-05-21T02:03:32.936Z,17.50
2023-05-21T02:05:59.626Z,17.50
2023-05-21T02:08:27.309Z,17.50
2023-05-21T02:10:53.981Z,17.40
2023-05-21T02:13:23.046Z,17.40
2023-05-21T02:15:54.753Z,17.30
2023-05-21T02:18:21.935Z,17.30
2023-05-21T02:20:48.636Z,17.30
2023-05-21T02:23:15.632Z,17.30
2023-05-21T02:25:42.559Z,17.30
2023-05-21T02:28:09.208Z,17.30
2023-05-21T02:30:36.479Z,17.30
2023-05-21T02:33:03.225Z,17.20
2023-05-21T02:35:29.928Z,17.20
2023-05-21T02:37:59.196Z,17.30
2023-05-21T02:40:26.147Z,17.20
2023-05-21T02:42:52.811Z,17.30
2023-05-21T02:45:19.430Z,17.30
2023-05-21T02:47:46.137Z,17.30
2023-05-21T02:50:13.615Z,17.30
2023-05-21T02:52:41.583Z,17.30
2023-05-21T02:55:08.457Z,17.30
2023-05-21T02:57:35.121Z,17.20
2023-05-21T03:00:01.750Z,17.20
2023-05-21T03:02:28.485Z,17.10
2023-05-21T03:04:55.518Z,17.10
2023-05-21T03:07:22.435Z,17.20
2023-05-21T03:09:49.099Z,17.20
2023-05-21T03:12:15.771Z,17.20
2023-05-21T03:14:44.002Z,17.20
2023-05-21T03:17:13.964Z,17.20
2023-05-21T03:19:41.689Z,17.10
2023-05-21T03:22:08.670Z,17.10
2023-05-21T03:24:36.621Z,17.10
2023-05-21T03:27:03.429Z,17.20
2023-05-21T03:29:30.152Z,17.10
2023-05-21T03:31:57.061Z,17.10
2023-05-21T03:34:24.258Z,17.00
2023-05-21T03:36:50.981Z,17.00
2023-05-21T03:39:17.819Z,17.00
2023-05-21T03:41:44.783Z,17.10
2023-05-21T03:44:11.445Z,17.20
2023-05-21T03:46:38.261Z,17.20
2023-05-21T03:49:05.072Z,17.20
2023-05-21T03:51:31.844Z,17.10
2023-05-21T03:53:59.127Z,17.20
2023-05-21T03:56:26.242Z,17.20
2023-05-21T03:58:53.110Z,17.20
2023-05-21T04:01:19.791Z,17.20
2023-05-21T04:03:46.714Z,17.20
2023-05-21T04:06:13.565Z,17.30
2023-05-21T04:08:40.214Z,17.20
2023-05-21T04:11:06.821Z,17.30
2023-05-21T04:13:33.440Z,17.20
2023-05-21T04:16:00.224Z,17.30
2023-05-21T04:18:27.062Z,17.30
2023-05-21T04:20:53.851Z,17.30
2023-05-21T04:23:23.513Z,17.40
2023-05-21T04:25:50.789Z,17.40
2023-05-21T04:28:20.988Z,17.50
2023-05-21T04:30:47.804Z,17.50
2023-05-21T04:33:18.076Z,17.60
2023-05-21T04:35:46.213Z,17.50
2023-05-21T04:38:12.850Z,17.50
2023-05-21T04:40:40.588Z,17.60
2023-05-21T04:43:08.138Z,17.70
2023-05-21T04:45:35.273Z,17.70
2023-05-21T04:48:02.793Z,17.80
2023-05-21T04:50:30.854Z,17.80
2023-05-21T04:52:59.556Z,17.90
2023-05-21T04:55:27.457Z,18.00
2023-05-21T04:57:54.248Z,18.00
2023-05-21T05:00:21.018Z,18.00
2023-05-21T05:02:47.723Z,18.00
2023-05-21T05:05:14.395Z,18.10
2023-05-21T05:07:41.050Z,18.10
2023-05-21T05:10:08.152Z,18.20
2023-05-21T05:12:34.879Z,18.30
2023-05-21T05:15:01.623Z,18.30
2023-05-21T05:17:28.362Z,18.40
2023-05-21T05:19:55.134Z,18.50
2023-05-21T05:22:21.757Z,18.50
2023-05-21T05:24:48.401Z,18.60
2023-05-21T05:27:15.012Z,18.50
2023-05-21T05:29:41.647Z,18.60
2023-05-21T05:32:08.284Z,18.70
2023-05-21T05:34:34.975Z,18.70
2023-05-21T05:37:02.879Z,18.90
2023-05-21T05:39:29.630Z,18.90
2023-05-21T05:41:56.285Z,19.00
2023-05-21T05:44:23.030Z,19.10
2023-05-21T05:46:49.784Z,19.10
2023-05-21T05:49:16.782Z,19.20
2023-05-21T05:51:43.419Z,19.20
2023-05-21T05:54:10.089Z,19.20
2023-05-21T05:56:36.687Z,19.30
2023-05-21T05:59:03.404Z,19.40
2023-05-21T06:01:30.072Z,19.40
2023-05-21T06:03:57.449Z,19.40
2023-05-21T06:06:24.301Z,19.50
2023-05-21T06:08:51.026Z,19.50
2023-05-21T06:11:18.964Z,19.60
2023-05-21T06:13:46.102Z,19.70
2023-05-21T06:16:13.034Z,19.70
2023-05-21T06:18:39.797Z,19.70
2023-05-21T06:21:06.532Z,19.80
2023-05-21T06:23:33.219Z,19.80
2023-05-21T06:25:59.847Z,19.90
2023-05-21T06:28:26.457Z,19.90
2023-05-21T06:30:53.150Z,19.90
2023-05-21T06:33:19.847Z,20.00
2023-05-21T06:35:46.729Z,19.90
2023-05-21T06:38:13.381Z,19.90
2023-05-21T06:40:40.004Z,20.00
2023-05-21T06:43:06.727Z,20.10
2023-05-21T06:45:33.484Z,20.10
2023-05-21T06:48:00.289Z,20.10
2023-05-21T06:50:27.065Z,20.00
2023-05-21T06:52:53.678Z,20.00
2023-05-21T06:55:20.371Z,20.00
2023-05-21T06:57:47.074Z,20.00
2023-05-21T07:00:14.003Z,20.10
2023-05-21T07:02:40.752Z,20.10
2023-05-21T07:05:07.573Z,20.00
2023-05-21T07:07:34.945Z,20.00
2023-05-21T07:10:01.633Z,20.10
2023-05-21T07:12:28.286Z,20.10
2023-05-21T07:14:55.357Z,20.10
2023-05-21T07:17:22.798Z,20.10
2023-05-21T07:19:49.433Z,20.20
2023-05-21T07:22:16.098Z,20.30
2023-05-21T07:24:42.755Z,20.40
2023-05-21T07:27:24.247Z,20.50
2023-05-21T07:29:52.121Z,20.50
2023-05-21T07:32:18.820Z,20.80
2023-05-21T07:34:45.685Z,20.90
2023-05-21T07:37:12.957Z,21.00
2023-05-21T07:39:39.843Z,21.20
2023-05-21T07:42:06.474Z,21.40
2023-05-21T07:44:33.086Z,21.50
2023-05-21T07:46:59.738Z,21.50
2023-05-21T07:49:26.375Z,21.80
2023-05-21T07:51:53.039Z,21.90
2023-05-21T07:54:19.789Z,21.90
2023-05-21T07:56:46.539Z,22.00
2023-05-21T07:59:17.052Z,22.00
2023-05-21T08:01:44.201Z,22.20
2023-05-21T08:04:11.121Z,22.30
2023-05-21T08:06:37.937Z,22.40
2023-05-21T08:09:06.163Z,22.40
2023-05-21T08:11:33.172Z,23.00
2023-05-21T08:13:59.990Z,22.70
2023-05-21T08:16:26.821Z,22.90
2023-05-21T08:18:53.591Z,22.90
2023-05-21T08:21:20.365Z,22.90
2023-05-21T08:23:47.070Z,23.10
2023-05-21T08:26:16.323Z,23.20
2023-05-21T08:28:43.320Z,23.40
2023-05-21T08:31:10.033Z,23.40
2023-05-21T08:33:39.357Z,23.50
2023-05-21T08:36:06.744Z,23.70
2023-05-21T08:38:34.122Z,23.70
2023-05-21T08:41:01.024Z,23.80
2023-05-21T08:43:28.204Z,23.80
2023-05-21T08:45:55.713Z,24.00
2023-05-21T08:48:23.450Z,24.00
2023-05-21T08:50:53.438Z,24.20
2023-05-21T08:53:28.050Z,24.20
2023-05-21T08:55:56.175Z,24.20
2023-05-21T08:58:22.986Z,24.30
2023-05-21T09:00:49.864Z,24.50
2023-05-21T09:03:16.694Z,24.50
2023-05-21T09:05:44.069Z,24.60
2023-05-21T09:08:21.755Z,24.60
2023-05-21T09:10:50.199Z,24.90
2023-05-21T09:13:17.352Z,24.90
2023-05-21T09:15:44.715Z,25.10
2023-05-21T09:18:12.305Z,25.20
2023-05-21T09:20:39.072Z,25.30
2023-05-21T09:23:06.777Z,25.40
2023-05-21T09:25:33.521Z,25.70
2023-05-21T09:28:00.193Z,26.00
2023-05-21T09:30:29.746Z,26.40
2023-05-21T09:32:58.374Z,27.00
2023-05-21T09:35:25.052Z,27.20
2023-05-21T09:37:52.492Z,27.50
2023-05-21T09:40:22.955Z,28.00
2023-05-21T09:42:53.885Z,28.20
2023-05-21T09:45:23.401Z,28.40
2023-05-21T09:47:50.939Z,28.60
2023-05-21T09:50:18.997Z,28.60
2023-05-21T09:52:45.825Z,28.70
2023-05-21T09:55:13.223Z,28.60
2023-05-21T09:57:42.993Z,28.70
2023-05-21T10:00:22.855Z,29.30
2023-05-21T10:02:50.709Z,29.90
2023-05-21T10:05:17.637Z,29.90
2023-05-21T10:07:54.407Z,29.70
2023-05-21T10:10:22.633Z,29.50
2023-05-21T10:12:54.708Z,29.40
2023-05-21T10:15:23.667Z,29.40
2023-05-21T10:17:50.428Z,29.50
2023-05-21T10:20:17.472Z,29.50
2023-05-21T10:22:44.517Z,29.50
2023-05-21T10:25:12.980Z,29.50
2023-05-21T10:27:39.926Z,29.70
2023-05-21T10:30:06.936Z,29.80
2023-05-21T10:32:33.887Z,29.90
2023-05-21T10:35:02.267Z,29.90
2023-05-21T10:37:29.079Z,30.00
2023-05-21T10:39:56.329Z,29.80
2023-05-21T10:42:25.784Z,30.00
2023-05-21T10:45:04.738Z,30.00
2023-05-21T10:47:31.354Z,30.10
2023-05-21T10:50:30.302Z,30.10
2023-05-21T10:53:11.110Z,30.10
2023-05-21T10:55:47.116Z,30.00
2023-05-21T10:58:28.023Z,29.80
2023-05-21T11:00:56.908Z,29.80
2023-05-21T11:03:23.820Z,29.50
2023-05-21T11:05:53.638Z,29.30
2023-05-21T11:08:31.810Z,29.20
2023-05-21T11:10:58.935Z,29.00
2023-05-21T11:13:26.323Z,29.20
2023-05-21T11:15:59.228Z,29.40
2023-05-21T11:18:35.131Z,29.60
2023-05-21T11:21:05.960Z,29.80
2023-05-21T11:23:50.989Z,30.10
2023-05-21T11:26:18.312Z,30.30
2023-05-21T11:28:45.018Z,30.40
2023-05-21T11:31:27.084Z,30.40
2023-05-21T11:34:11.877Z,30.20
2023-05-21T11:36:39.232Z,30.10
2023-05-21T11:39:10.758Z,30.10
2023-05-21T11:41:50.244Z,30.00
2023-05-21T11:44:17.015Z,30.00
2023-05-21T11:46:43.710Z,30.10
2023-05-21T11:49:10.510Z,30.20
2023-05-21T11:51:37.127Z,30.30
2023-05-21T11:54:03.949Z,30.50
2023-05-21T11:56:31.870Z,30.50
2023-05-21T11:59:01.873Z,30.60
2023-05-21T12:01:31.066Z,30.70
2023-05-21T12:03:57.890Z,30.90
2023-05-21T12:06:27.863Z,31.00
2023-05-21T12:08:58.141Z,31.00
2023-05-21T12:11:24.903Z,31.00
2023-05-21T12:13:51.536Z,30.90
2023-05-21T12:16:18.282Z,30.70
2023-05-21T12:18:45.014Z,30.50
2023-05-21T12:21:12.686Z,30.40
2023-05-21T12:23:39.343Z,30.40
2023-05-21T12:26:06.019Z,30.60
2023-05-21T12:28:32.644Z,30.70
2023-05-21T12:30:59.266Z,30.90
2023-05-21T12:33:33.008Z,31.10
2023-05-21T12:35:59.754Z,31.10
2023-05-21T12:38:30.618Z,30.90
2023-05-21T12:41:03.085Z,31.00
2023-05-21T12:43:32.994Z,30.90
2023-05-21T12:45:59.688Z,30.70
2023-05-21T12:48:26.348Z,30.60
2023-05-21T12:50:53.006Z,30.50
2023-05-21T12:53:19.669Z,30.50
2023-05-21T12:55:46.416Z,30.50
2023-05-21T12:58:13.585Z,30.60
2023-05-21T13:00:41.859Z,30.60
2023-05-21T13:03:08.661Z,30.60
2023-05-21T13:05:35.656Z,30.50
2023-05-21T13:08:02.655Z,30.50
2023-05-21T13:10:29.283Z,30.60
2023-05-21T13:12:56.005Z,30.40
2023-05-21T13:15:22.667Z,30.40
2023-05-21T13:17:50.842Z,30.40
2023-05-21T13:20:21.679Z,30.40
2023-05-21T13:22:50.009Z,30.60
2023-05-21T13:25:18.851Z,30.70
2023-05-21T13:27:46.081Z,30.60
2023-05-21T13:30:13.068Z,30.40
2023-05-21T13:32:40.288Z,30.30
2023-05-21T13:35:07.334Z,30.20
2023-05-21T13:37:37.418Z,30.20
2023-05-21T13:40:04.719Z,30.20
2023-05-21T13:42:31.344Z,30.00
2023-05-21T13:44:58.251Z,30.10
2023-05-21T13:47:25.029Z,30.10
2023-05-21T13:49:51.883Z,30.10
2023-05-21T13:52:18.522Z,30.20
2023-05-21T13:54:45.124Z,30.30
2023-05-21T13:57:11.780Z,30.20
2023-05-21T13:59:40.418Z,30.20
2023-05-21T14:02:08.858Z,30.20
2023-05-21T14:04:37.856Z,30.20
2023-05-21T14:07:06.504Z,30.20
2023-05-21T14:09:33.143Z,30.20
2023-05-21T14:11:59.879Z,30.20
2023-05-21T14:14:26.527Z,30.20
2023-05-21T14:16:53.253Z,30.30
2023-05-21T14:19:20.384Z,30.30
2023-05-21T14:21:47.046Z,30.40
2023-05-21T14:24:13.781Z,30.50
2023-05-21T14:26:41.008Z,30.50
2023-05-21T14:29:08.054Z,30.50
2023-05-21T14:31:34.839Z,30.50
2023-05-21T14:34:02.840Z,30.50
2023-05-21T14:36:29.753Z,30.60
2023-05-21T14:38:56.498Z,30.60
2023-05-21T14:41:29.048Z,30.70
2023-05-21T14:43:55.741Z,30.60
2023-05-21T14:46:22.790Z,30.60
2023-05-21T14:48:49.677Z,30.50
2023-05-21T14:51:16.430Z,30.20
2023-05-21T14:53:43.068Z,30.20
2023-05-21T14:56:09.773Z,30.20
2023-05-21T14:58:36.405Z,30.10
2023-05-21T15:01:04.228Z,30.00
2023-05-21T15:03:31.070Z,30.00
2023-05-21T15:05:58.507Z,29.90
2023-05-21T15:08:25.331Z,29.90
2023-05-21T15:10:52.158Z,29.90
2023-05-21T15:13:18.844Z,30.00
2023-05-21T15:15:45.581Z,30.10
2023-05-21T15:18:12.306Z,30.10
2023-05-21T15:20:38.935Z,30.10
2023-05-21T15:23:16.121Z,30.00
2023-05-21T15:25:43.818Z,29.90
2023-05-21T15:28:11.783Z,29.70
2023-05-21T15:30:38.429Z,29.50
2023-05-21T15:33:05.148Z,29.40
2023-05-21T15:35:31.912Z,29.30
2023-05-21T15:37:58.709Z,29.20
2023-05-21T15:40:27.103Z,29.00
2023-05-21T15:42:54.252Z,28.90
2023-05-21T15:45:21.321Z,28.80
2023-05-21T15:47:48.062Z,28.80
2023-05-21T15:50:14.808Z,28.60
2023-05-21T15:52:41.812Z,28.50
2023-05-21T15:55:08.809Z,28.50
2023-05-21T15:57:35.547Z,28.50
2023-05-21T16:00:02.469Z,28.50
2023-05-21T16:02:29.239Z,28.40
2023-05-21T16:04:55.971Z,28.50
2023-05-21T16:07:23.483Z,28.40
2023-05-21T16:09:50.613Z,28.40
2023-05-21T16:12:17.590Z,28.30
2023-05-21T16:14:44.251Z,28.10
2023-05-21T16:17:11.125Z,28.20
2023-05-21T16:19:38.014Z,28.20
2023-05-21T16:22:04.882Z,28.00
2023-05-21T16:24:31.590Z,27.80
2023-05-21T16:26:58.396Z,27.70
2023-05-21T16:29:25.001Z,27.70
2023-05-21T16:31:51.731Z,27.80
2023-05-21T16:34:18.489Z,27.70
2023-05-21T16:36:45.790Z,27.60
2023-05-21T16:39:12.486Z,27.60
2023-05-21T16:41:39.202Z,27.40
2023-05-21T16:44:05.976Z,27.40
2023-05-21T16:46:32.691Z,27.40
2023-05-21T16:48:59.485Z,27.30
2023-05-21T16:51:26.149Z,27.30
2023-05-21T16:53:52.879Z,27.20
2023-05-21T16:56:19.543Z,27.20
2023-05-21T16:58:46.165Z,27.10
2023-05-21T17:01:13.219Z,27.10
2023-05-21T17:03:43.070Z,27.00
2023-05-21T17:06:10.117Z,27.00
2023-05-21T17:08:36.762Z,26.80
2023-05-21T17:11:03.510Z,26.70
2023-05-21T17:13:30.261Z,26.80
2023-05-21T17:15:56.942Z,26.80
2023-05-21T17:18:23.603Z,26.70
2023-05-21T17:20:50.385Z,26.70
2023-05-21T17:23:17.273Z,26.60
2023-05-21T17:25:44.184Z,26.60
2023-05-21T17:28:11.277Z,26.60
2023-05-21T17:30:37.946Z,26.50
2023-05-21T17:33:04.687Z,26.50
2023-05-21T17:35:31.419Z,26.50
2023-05-21T17:37:58.155Z,26.50
2023-05-21T17:40:25.240Z,26.50
2023-05-21T17:42:52.610Z,26.40
2023-05-21T17:45:19.682Z,26.40
2023-05-21T17:47:46.556Z,26.30
2023-05-21T17:50:13.320Z,26.30
2023-05-21T17:52:39.988Z,26.30
2023-05-21T17:55:07.909Z,26.30
2023-05-21T17:57:36.024Z,26.10
2023-05-21T18:00:04.918Z,26.10
2023-05-21T18:02:31.674Z,26.00
2023-05-21T18:04:58.524Z,26.00
2023-05-21T18:07:25.577Z,26.00
2023-05-21T18:09:52.210Z,25.90
2023-05-21T18:12:19.052Z,25.90
2023-05-21T18:14:45.845Z,25.90
2023-05-21T18:17:12.763Z,25.90
2023-05-21T18:19:39.435Z,25.80
2023-05-21T18:22:06.164Z,25.80
2023-05-21T18:24:32.839Z,25.70
2023-05-21T18:26:59.570Z,25.70
2023-05-21T18:29:26.279Z,25.70
2023-05-21T18:31:52.951Z,25.40
2023-05-21T18:34:19.760Z,25.60
2023-05-21T18:36:46.676Z,25.60
2023-05-21T18:39:13.350Z,25.60
2023-05-21T18:41:40.067Z,25.50
2023-05-21T18:44:06.865Z,25.40
2023-05-21T18:46:33.614Z,25.40
2023-05-21T18:49:00.797Z,25.40
2023-05-21T18:51:27.558Z,25.30
2023-05-21T18:53:54.169Z,25.20
2023-05-21T18:56:21.939Z,25.20
2023-05-21T18:58:48.736Z,25.10
2023-05-21T19:01:16.072Z,25.10
2023-05-21T19:03:42.795Z,25.00
2023-05-21T19:06:09.531Z,25.00
2023-05-21T19:08:36.205Z,24.90
2023-05-21T19:11:03.231Z,24.90
2023-05-21T19:13:30.127Z,24.80
2023-05-21T19:15:58.305Z,24.70
2023-05-21T19:18:30.282Z,24.70
2023-05-21T19:20:57.233Z,24.60
2023-05-21T19:23:24.678Z,24.60
2023-05-21T19:25:51.602Z,24.50
2023-05-21T19:28:18.802Z,24.50
2023-05-21T19:30:46.211Z,24.50
2023-05-21T19:33:13.624Z,24.50
2023-05-21T19:35:41.990Z,24.40
2023-05-21T19:38:11.765Z,24.30
2023-05-21T19:40:38.652Z,24.20
2023-05-21T19:43:05.621Z,24.30
2023-05-21T19:45:32.667Z,24.30
2023-05-21T19:47:59.918Z,24.10
2023-05-21T19:50:28.779Z,24.10
2023-05-21T19:52:57.274Z,24.10
2023-05-21T19:55:24.801Z,24.10
2023-05-21T19:57:52.026Z,24.10
2023-05-21T20:00:18.933Z,24.00
2023-05-21T20:02:46.265Z,24.10
2023-05-21T20:05:13.209Z,24.00
2023-05-21T20:07:40.018Z,24.00
2023-05-21T20:10:07.391Z,24.00
2023-05-21T20:12:34.102Z,23.90
2023-05-21T20:15:00.987Z,23.80
2023-05-21T20:17:28.716Z,23.80
2023-05-21T20:19:57.237Z,23.80
2023-05-21T20:22:23.986Z,23.70
2023-05-21T20:24:50.687Z,23.60
2023-05-21T20:27:19.382Z,23.60
2023-05-21T20:29:46.258Z,23.60
2023-05-21T20:32:13.024Z,23.60
2023-05-21T20:34:54.228Z,23.50
2023-05-21T20:37:29.080Z,23.60
2023-05-21T20:39:57.722Z,23.50
2023-05-21T20:42:28.595Z,23.50
2023-05-21T20:44:55.455Z,23.50
2023-05-21T20:47:23.293Z,23.50
2023-05-21T20:49:53.723Z,23.40
2023-05-21T20:52:20.586Z,23.40
2023-05-21T20:54:48.819Z,23.40
2023-05-21T20:57:15.510Z,23.40
2023-05-21T20:59:42.305Z,23.30
2023-05-21T21:02:10.860Z,23.30
2023-05-21T21:04:37.919Z,23.30
2023-05-21T21:07:07.820Z,23.30
2023-05-21T21:09:34.475Z,23.30
2023-05-21T21:12:06.137Z,23.30
2023-05-21T21:14:38.132Z,23.20
2023-05-21T21:17:04.762Z,23.20
2023-05-21T21:19:31.469Z,23.10
2023-05-21T21:21:58.396Z,23.20
2023-05-21T21:24:25.095Z,23.20
2023-05-21T21:26:51.677Z,23.20
2023-05-21T21:29:18.353Z,23.20
2023-05-21T21:31:47.413Z,23.20
2023-05-21T21:34:14.304Z,23.10
2023-05-21T21:36:40.932Z,23.20
2023-05-21T21:39:07.757Z,23.00
2023-05-21T21:41:34.396Z,23.00
2023-05-21T21:44:01.061Z,23.00
2023-05-21T21:46:27.817Z,22.90
2023-05-21T21:48:54.535Z,22.90
2023-05-21T21:51:23.136Z,23.00
2023-05-21T21:53:50.521Z,23.00
2023-05-21T21:56:17.306Z,23.00
2023-05-21T21:58:44.144Z,23.00
2023-05-21T22:01:10.949Z,23.00
2023-05-21T22:03:37.607Z,23.00
2023-05-21T22:06:04.375Z,22.90
2023-05-21T22:08:30.984Z,22.90
2023-05-21T22:10:57.613Z,23.00
2023-05-21T22:13:24.655Z,23.00
2023-05-21T22:15:51.577Z,23.00
2023-05-21T22:18:28.333Z,22.90
2023-05-21T22:21:03.790Z,22.90
2023-05-21T22:23:30.467Z,22.90
2023-05-21T22:25:57.101Z,22.80
2023-05-21T22:28:23.681Z,22.80
2023-05-21T22:30:50.409Z,22.80
2023-05-21T22:33:17.196Z,22.70
2023-05-21T22:35:43.925Z,22.70
2023-05-21T22:38:10.564Z,22.80
2023-05-21T22:40:38.121Z,22.80
2023-05-21T22:43:05.244Z,22.80
2023-05-21T22:45:31.916Z,22.70
2023-05-21T22:48:01.561Z,22.50
2023-05-21T22:50:29.374Z,22.50
2023-05-21T22:52:56.143Z,22.50
2023-05-21T22:55:22.771Z,22.40
2023-05-21T22:57:49.431Z,22.50
2023-05-21T23:00:19.032Z,22.40
2023-05-21T23:02:46.858Z,22.40
2023-05-21T23:05:13.857Z,22.50
2023-05-21T23:07:41.273Z,22.50
2023-05-21T23:10:08.223Z,22.40
2023-05-21T23:12:34.917Z,22.40
2023-05-21T23:15:02.798Z,22.40
2023-05-21T23:17:29.499Z,22.40
2023-05-21T23:19:56.319Z,22.40
2023-05-21T23:22:22.971Z,22.30
2023-05-21T23:24:50.979Z,22.30
2023-05-21T23:27:17.626Z,22.30
2023-05-21T23:29:44.291Z,22.30
2023-05-21T23:32:11.102Z,22.20
2023-05-21T23:34:37.994Z,22.20
2023-05-21T23:37:04.763Z,22.20
2023-05-21T23:39:31.406Z,22.20
2023-05-21T23:41:58.073Z,22.10
2023-05-21T23:44:24.733Z,22.20
2023-05-21T23:46:51.708Z,22.20
2023-05-21T23:49:18.349Z,22.20
2023-05-21T23:51:45.058Z,22.20
2023-05-21T23:54:15.104Z,22.10
2023-05-21T23:56:42.580Z,22.10
2023-05-21T23:59:09.586Z,22.10
